sensor_id;sensor_type;location;lat;lon;timestamp;pressure;altitude;pressure_sealevel;temperature;humidity
56414;BME280;42318;48.452;19.526;2023-02-14T00:05:21;99910.47;;;20.66;44.46
56414;BME280;42318;48.452;19.526;2023-02-14T00:12:52;99912.22;;;20.61;44.33
56414;BME280;42318;48.452;19.526;2023-02-14T00:20:23;99898.00;;;20.59;44.22
56414;BME280;42318;48.452;19.526;2023-02-14T00:27:54;99904.94;;;20.55;44.54
56414;BME280;42318;48.452;19.526;2023-02-14T00:35:26;99908.50;;;20.55;44.32
56414;BME280;42318;48.452;19.526;2023-02-14T00:42:56;99916.28;;;20.52;44.34
56414;BME280;42318;48.452;19.526;2023-02-14T00:50:27;99927.63;;;20.49;44.37
56414;BME280;42318;48.452;19.526;2023-02-14T00:57:58;99922.41;;;20.47;44.12
56414;BME280;42318;48.452;19.526;2023-02-14T01:05:29;99916.59;;;20.44;44.13
56414;BME280;42318;48.452;19.526;2023-02-14T01:12:59;99911.97;;;20.44;43.91
56414;BME280;42318;48.452;19.526;2023-02-14T01:20:30;99898.59;;;20.43;43.79
56414;BME280;42318;48.452;19.526;2023-02-14T01:28:01;99880.59;;;20.42;43.73
56414;BME280;42318;48.452;19.526;2023-02-14T01:35:36;99866.75;;;20.36;43.81
56414;BME280;42318;48.452;19.526;2023-02-14T01:43:15;99867.41;;;20.38;43.73
56414;BME280;42318;48.452;19.526;2023-02-14T01:50:47;99864.03;;;20.36;43.61
56414;BME280;42318;48.452;19.526;2023-02-14T01:58:23;99838.94;;;20.34;43.78
56414;BME280;42318;48.452;19.526;2023-02-14T02:05:58;99842.72;;;20.33;43.84
56414;BME280;42318;48.452;19.526;2023-02-14T02:13:32;99858.22;;;20.33;43.40
56414;BME280;42318;48.452;19.526;2023-02-14T02:29:27;99836.06;;;20.29;43.29
56414;BME280;42318;48.452;19.526;2023-02-14T02:53:54;99821.69;;;20.22;43.78
56414;BME280;42318;48.452;19.526;2023-02-14T03:01:31;99813.75;;;20.21;43.48
56414;BME280;42318;48.452;19.526;2023-02-14T03:24:45;99787.22;;;20.16;43.61
56414;BME280;42318;48.452;19.526;2023-02-14T03:32:45;99799.53;;;20.19;43.55
56414;BME280;42318;48.452;19.526;2023-02-14T03:40:31;99816.91;;;20.18;43.27
56414;BME280;42318;48.452;19.526;2023-02-14T03:48:07;99819.25;;;20.14;43.37
56414;BME280;42318;48.452;19.526;2023-02-14T03:55:46;99811.94;;;20.15;43.47
56414;BME280;42318;48.452;19.526;2023-02-14T04:03:22;99798.53;;;20.13;43.23
56414;BME280;42318;48.452;19.526;2023-02-14T04:10:56;99815.09;;;20.12;43.44
56414;BME280;42318;48.452;19.526;2023-02-14T04:18:28;99809.72;;;20.05;43.65
56414;BME280;42318;48.452;19.526;2023-02-14T04:26:18;99803.69;;;20.03;43.57
56414;BME280;42318;48.452;19.526;2023-02-14T04:33:48;99814.94;;;20.06;43.67
56414;BME280;42318;48.452;19.526;2023-02-14T04:41:20;99807.63;;;20.07;43.31
56414;BME280;42318;48.452;19.526;2023-02-14T04:48:51;99804.88;;;20.07;43.17
56414;BME280;42318;48.452;19.526;2023-02-14T04:56:22;99798.63;;;20.06;43.57
56414;BME280;42318;48.452;19.526;2023-02-14T05:03:52;99794.69;;;20.02;43.07
56414;BME280;42318;48.452;19.526;2023-02-14T05:11:23;99794.47;;;20.04;43.21
56414;BME280;42318;48.452;19.526;2023-02-14T05:18:54;99799.53;;;20.00;43.17
56414;BME280;42318;48.452;19.526;2023-02-14T05:26:25;99800.81;;;19.98;43.27
56414;BME280;42318;48.452;19.526;2023-02-14T05:33:56;99811.06;;;19.96;43.26
56414;BME280;42318;48.452;19.526;2023-02-14T05:41:26;99827.16;;;19.97;43.26
56414;BME280;42318;48.452;19.526;2023-02-14T05:48:57;99835.59;;;19.89;43.12
56414;BME280;42318;48.452;19.526;2023-02-14T05:56:28;99853.97;;;19.94;43.35
56414;BME280;42318;48.452;19.526;2023-02-14T06:03:59;99856.91;;;19.92;43.31
56414;BME280;42318;48.452;19.526;2023-02-14T06:11:30;99885.16;;;19.91;43.67
56414;BME280;42318;48.452;19.526;2023-02-14T06:19:00;99886.81;;;19.92;43.22
56414;BME280;42318;48.452;19.526;2023-02-14T06:26:31;99906.69;;;19.93;43.38
56414;BME280;42318;48.452;19.526;2023-02-14T06:34:02;99914.63;;;19.94;43.21
56414;BME280;42318;48.452;19.526;2023-02-14T06:41:33;99913.19;;;19.92;43.04
56414;BME280;42318;48.452;19.526;2023-02-14T06:49:04;99920.75;;;19.90;43.08
56414;BME280;42318;48.452;19.526;2023-02-14T06:56:35;99927.41;;;19.94;42.79
56414;BME280;42318;48.452;19.526;2023-02-14T07:04:05;99924.50;;;19.95;42.80
56414;BME280;42318;48.452;19.526;2023-02-14T07:11:36;99938.28;;;19.94;42.88
56414;BME280;42318;48.452;19.526;2023-02-14T07:19:07;99936.81;;;19.98;42.43
56414;BME280;42318;48.452;19.526;2023-02-14T07:26:38;99933.22;;;20.04;42.96
56414;BME280;42318;48.452;19.526;2023-02-14T07:34:08;99945.09;;;20.10;42.65
56414;BME280;42318;48.452;19.526;2023-02-14T07:41:39;99940.50;;;20.10;42.40
56414;BME280;42318;48.452;19.526;2023-02-14T07:49:10;99942.38;;;20.10;42.77
56414;BME280;42318;48.452;19.526;2023-02-14T07:56:41;99941.72;;;20.14;42.48
56414;BME280;42318;48.452;19.526;2023-02-14T08:04:12;99928.94;;;20.15;42.38
56414;BME280;42318;48.452;19.526;2023-02-14T08:11:43;99921.16;;;20.18;42.89
56414;BME280;42318;48.452;19.526;2023-02-14T08:19:33;99933.72;;;20.19;43.10
56414;BME280;42318;48.452;19.526;2023-02-14T08:27:04;99945.81;;;20.23;43.55
56414;BME280;42318;48.452;19.526;2023-02-14T08:34:34;99953.53;;;20.26;44.01
56414;BME280;42318;48.452;19.526;2023-02-14T08:42:05;99955.16;;;20.34;43.45
56414;BME280;42318;48.452;19.526;2023-02-14T08:49:36;99947.81;;;20.34;43.48
56414;BME280;42318;48.452;19.526;2023-02-14T08:57:07;99977.16;;;20.32;43.92
56414;BME280;42318;48.452;19.526;2023-02-14T09:04:38;99964.75;;;20.36;43.81
56414;BME280;42318;48.452;19.526;2023-02-14T09:12:10;99958.03;;;20.46;43.51
56414;BME280;42318;48.452;19.526;2023-02-14T09:19:41;99959.03;;;20.51;43.52
56414;BME280;42318;48.452;19.526;2023-02-14T09:27:12;99953.50;;;20.58;43.36
56414;BME280;42318;48.452;19.526;2023-02-14T09:34:43;99964.56;;;20.63;43.46
56414;BME280;42318;48.452;19.526;2023-02-14T09:49:45;99937.41;;;20.75;43.51
56414;BME280;42318;48.452;19.526;2023-02-14T10:05:39;99914.81;;;20.92;43.25
56414;BME280;42318;48.452;19.526;2023-02-14T10:13:31;99913.72;;;21.12;42.91
56414;BME280;42318;48.452;19.526;2023-02-14T10:21:05;99921.22;;;21.16;42.96
56414;BME280;42318;48.452;19.526;2023-02-14T10:44:37;99914.22;;;21.27;43.27
56414;BME280;42318;48.452;19.526;2023-02-14T10:52:20;99899.44;;;21.35;43.29
56414;BME280;42318;48.452;19.526;2023-02-14T10:59:59;99903.13;;;21.22;43.54
56414;BME280;42318;48.452;19.526;2023-02-14T11:07:30;99908.59;;;21.04;43.71
56414;BME280;42318;48.452;19.526;2023-02-14T11:22:43;99883.19;;;20.91;44.11
56414;BME280;42318;48.452;19.526;2023-02-14T11:30:35;99882.19;;;20.86;43.88
56414;BME280;42318;48.452;19.526;2023-02-14T11:38:30;99878.47;;;20.80;44.30
56414;BME280;42318;48.452;19.526;2023-02-14T11:53:55;99875.97;;;20.79;44.01
56414;BME280;42318;48.452;19.526;2023-02-14T12:01:32;99870.16;;;20.75;44.20
56414;BME280;42318;48.452;19.526;2023-02-14T12:17:01;99846.84;;;20.79;43.89
56414;BME280;42318;48.452;19.526;2023-02-14T12:24:37;99845.50;;;20.88;43.77
56414;BME280;42318;48.452;19.526;2023-02-14T12:32:26;99834.28;;;20.96;43.72
56414;BME280;42318;48.452;19.526;2023-02-14T12:56:15;99805.09;;;20.67;45.79
56414;BME280;42318;48.452;19.526;2023-02-14T13:04:02;99807.69;;;20.62;45.75
56414;BME280;42318;48.452;19.526;2023-02-14T13:12:12;99798.91;;;20.60;45.79
56414;BME280;42318;48.452;19.526;2023-02-14T13:27:38;99798.97;;;20.53;46.40
56414;BME280;42318;48.452;19.526;2023-02-14T13:35:17;99796.31;;;20.65;46.42
56414;BME280;42318;48.452;19.526;2023-02-14T13:42:49;99791.03;;;20.70;46.36
56414;BME280;42318;48.452;19.526;2023-02-14T13:50:20;99789.81;;;20.66;46.54
56414;BME280;42318;48.452;19.526;2023-02-14T13:58:18;99787.53;;;20.63;46.45
56414;BME280;42318;48.452;19.526;2023-02-14T14:21:35;99787.50;;;20.26;46.82
56414;BME280;42318;48.452;19.526;2023-02-14T14:29:20;99782.81;;;20.15;47.09
56414;BME280;42318;48.452;19.526;2023-02-14T14:37:15;99782.16;;;20.20;46.71
56414;BME280;42318;48.452;19.526;2023-02-14T14:44:59;99781.38;;;20.13;46.49
56414;BME280;42318;48.452;19.526;2023-02-14T14:52:37;99785.25;;;20.05;46.59
56414;BME280;42318;48.452;19.526;2023-02-14T15:07:43;99785.69;;;20.02;45.35
56414;BME280;42318;48.452;19.526;2023-02-14T15:15:16;99777.38;;;19.97;45.68
56414;BME280;42318;48.452;19.526;2023-02-14T15:22:52;99767.25;;;20.22;45.27
56414;BME280;42318;48.452;19.526;2023-02-14T15:30:33;99785.31;;;20.35;45.48
56414;BME280;42318;48.452;19.526;2023-02-14T15:38:12;99782.97;;;20.45;45.45
56414;BME280;42318;48.452;19.526;2023-02-14T15:45:48;99782.72;;;20.47;45.51
56414;BME280;42318;48.452;19.526;2023-02-14T16:01:21;99799.44;;;20.50;45.28
56414;BME280;42318;48.452;19.526;2023-02-14T16:08:54;99795.44;;;20.53;45.55
56414;BME280;42318;48.452;19.526;2023-02-14T16:16:25;99812.81;;;20.52;45.74
56414;BME280;42318;48.452;19.526;2023-02-14T16:31:46;99821.81;;;20.52;45.42
56414;BME280;42318;48.452;19.526;2023-02-14T16:39:19;99822.66;;;20.53;45.18
56414;BME280;42318;48.452;19.526;2023-02-14T16:46:52;99837.34;;;20.52;45.77
56414;BME280;42318;48.452;19.526;2023-02-14T16:54:25;99840.13;;;20.45;45.34
56414;BME280;42318;48.452;19.526;2023-02-14T17:01:59;99844.75;;;20.45;45.38
56414;BME280;42318;48.452;19.526;2023-02-14T17:09:34;99838.69;;;20.43;45.28
56414;BME280;42318;48.452;19.526;2023-02-14T17:17:09;99850.44;;;20.36;45.06
56414;BME280;42318;48.452;19.526;2023-02-14T17:24:40;99843.00;;;20.25;45.10
56414;BME280;42318;48.452;19.526;2023-02-14T17:32:12;99846.34;;;20.27;44.88
56414;BME280;42318;48.452;19.526;2023-02-14T17:39:43;99838.00;;;20.22;44.96
56414;BME280;42318;48.452;19.526;2023-02-14T17:47:14;99848.69;;;20.24;44.92
56414;BME280;42318;48.452;19.526;2023-02-14T17:54:47;99841.63;;;20.16;44.45
56414;BME280;42318;48.452;19.526;2023-02-14T18:02:18;99843.69;;;20.21;44.75
56414;BME280;42318;48.452;19.526;2023-02-14T18:09:49;99839.53;;;20.18;44.77
56414;BME280;42318;48.452;19.526;2023-02-14T18:17:20;99844.34;;;20.16;44.48
56414;BME280;42318;48.452;19.526;2023-02-14T18:24:51;99834.75;;;20.14;44.61
56414;BME280;42318;48.452;19.526;2023-02-14T18:32:22;99840.41;;;20.12;44.25
56414;BME280;42318;48.452;19.526;2023-02-14T18:39:53;99837.91;;;20.11;44.26
56414;BME280;42318;48.452;19.526;2023-02-14T18:47:23;99841.69;;;20.10;44.16
56414;BME280;42318;48.452;19.526;2023-02-14T18:54:54;99829.59;;;20.05;44.52
56414;BME280;42318;48.452;19.526;2023-02-14T19:02:28;99830.66;;;20.04;44.39
56414;BME280;42318;48.452;19.526;2023-02-14T19:09:59;99828.38;;;20.01;44.29
56414;BME280;42318;48.452;19.526;2023-02-14T19:17:30;99825.28;;;19.98;44.34
56414;BME280;42318;48.452;19.526;2023-02-14T19:25:02;99836.16;;;19.98;44.35
56414;BME280;42318;48.452;19.526;2023-02-14T19:32:33;99838.44;;;20.01;44.62
56414;BME280;42318;48.452;19.526;2023-02-14T19:40:04;99830.50;;;19.99;44.42
56414;BME280;42318;48.452;19.526;2023-02-14T19:47:37;99831.34;;;20.00;44.05
56414;BME280;42318;48.452;19.526;2023-02-14T19:55:17;99836.38;;;19.96;44.17
56414;BME280;42318;48.452;19.526;2023-02-14T20:02:50;99841.41;;;19.93;44.19
56414;BME280;42318;48.452;19.526;2023-02-14T20:10:21;99834.31;;;19.92;44.36
56414;BME280;42318;48.452;19.526;2023-02-14T20:17:51;99835.13;;;19.92;44.46
56414;BME280;42318;48.452;19.526;2023-02-14T20:25:22;99843.31;;;19.92;44.29
56414;BME280;42318;48.452;19.526;2023-02-14T20:32:53;99841.84;;;19.90;44.64
56414;BME280;42318;48.452;19.526;2023-02-14T20:40:24;99840.19;;;19.89;44.41
56414;BME280;42318;48.452;19.526;2023-02-14T20:47:55;99841.25;;;19.88;44.41
56414;BME280;42318;48.452;19.526;2023-02-14T20:55:26;99834.59;;;19.84;44.18
56414;BME280;42318;48.452;19.526;2023-02-14T21:02:57;99838.16;;;19.84;44.24
56414;BME280;42318;48.452;19.526;2023-02-14T21:10:28;99832.31;;;19.81;44.56
56414;BME280;42318;48.452;19.526;2023-02-14T21:17:59;99843.81;;;19.83;44.20
56414;BME280;42318;48.452;19.526;2023-02-14T21:25:31;99846.13;;;19.79;44.35
56414;BME280;42318;48.452;19.526;2023-02-14T21:33:01;99842.13;;;19.82;44.38
56414;BME280;42318;48.452;19.526;2023-02-14T21:40:33;99853.91;;;19.75;44.19
56414;BME280;42318;48.452;19.526;2023-02-14T21:48:04;99850.34;;;19.75;44.63
56414;BME280;42318;48.452;19.526;2023-02-14T21:55:53;99850.97;;;19.77;44.63
56414;BME280;42318;48.452;19.526;2023-02-14T22:03:24;99856.84;;;19.74;44.49
56414;BME280;42318;48.452;19.526;2023-02-14T22:10:55;99854.13;;;19.74;44.41
56414;BME280;42318;48.452;19.526;2023-02-14T22:18:26;99849.97;;;19.71;44.44
56414;BME280;42318;48.452;19.526;2023-02-14T22:26:34;99860.47;;;19.68;44.70
56414;BME280;42318;48.452;19.526;2023-02-14T22:34:10;99855.00;;;19.68;44.45
56414;BME280;42318;48.452;19.526;2023-02-14T22:41:41;99854.63;;;19.64;44.37
56414;BME280;42318;48.452;19.526;2023-02-14T22:49:12;99859.63;;;19.67;44.23
56414;BME280;42318;48.452;19.526;2023-02-14T22:56:45;99858.41;;;19.63;44.46
56414;BME280;42318;48.452;19.526;2023-02-14T23:04:18;99856.50;;;19.64;44.55
56414;BME280;42318;48.452;19.526;2023-02-14T23:11:51;99859.00;;;19.65;44.58
56414;BME280;42318;48.452;19.526;2023-02-14T23:19:27;99857.13;;;19.66;44.53
56414;BME280;42318;48.452;19.526;2023-02-14T23:27:18;99850.25;;;19.63;44.27
56414;BME280;42318;48.452;19.526;2023-02-14T23:34:49;99848.81;;;19.61;44.41
56414;BME280;42318;48.452;19.526;2023-02-14T23:42:20;99841.69;;;19.60;44.21
56414;BME280;42318;48.452;19.526;2023-02-14T23:49:51;99852.78;;;19.58;44.24
56414;BME280;42318;48.452;19.526;2023-02-14T23:57:22;99849.63;;;19.61;43.84
